createdAt,value
2022-11-20T00:00:25.296Z,4.90
2022-11-20T00:02:51.945Z,4.90
2022-11-20T00:05:19.249Z,4.90
2022-11-20T00:07:45.875Z,4.91
2022-11-20T00:10:14.684Z,4.94
2022-11-20T00:12:44.078Z,4.97
2022-11-20T00:15:11.143Z,4.92
2022-11-20T00:17:40.172Z,4.78
2022-11-20T00:20:09.115Z,4.84
2022-11-20T00:22:38.177Z,4.85
2022-11-20T00:25:04.825Z,4.86
2022-11-20T00:27:31.369Z,4.89
2022-11-20T00:30:00.078Z,4.83
2022-11-20T00:32:26.628Z,4.78
2022-11-20T00:34:53.189Z,4.77
2022-11-20T00:37:21.941Z,4.82
2022-11-20T00:39:48.718Z,4.90
2022-11-20T00:42:15.464Z,4.99
2022-11-20T00:44:42.084Z,5.00
2022-11-20T00:47:08.693Z,5.05
2022-11-20T00:49:35.369Z,5.05
2022-11-20T00:52:04.664Z,5.04
2022-11-20T00:54:33.671Z,5.07
2022-11-20T00:57:00.224Z,5.06
2022-11-20T00:59:26.811Z,5.07
2022-11-20T01:01:53.365Z,5.08
2022-11-20T01:04:22.001Z,5.05
2022-11-20T01:06:51.039Z,4.98
2022-11-20T01:09:17.671Z,4.93
2022-11-20T01:11:44.986Z,4.89
2022-11-20T01:14:12.551Z,4.78
2022-11-20T01:16:42.588Z,4.70
2022-11-20T01:19:14.800Z,4.67
2022-11-20T01:21:47.357Z,4.69
2022-11-20T01:24:15.433Z,4.72
2022-11-20T01:26:42.566Z,4.72
2022-11-20T01:29:11.916Z,4.72
2022-11-20T01:31:40.878Z,4.71
2022-11-20T01:34:08.366Z,4.70
2022-11-20T01:36:35.272Z,4.71
2022-11-20T01:39:03.443Z,4.73
2022-11-20T01:41:51.936Z,4.80
2022-11-20T01:44:19.674Z,4.88
2022-11-20T01:46:59.158Z,4.91
2022-11-20T01:49:30.020Z,4.98
2022-11-20T01:52:03.029Z,5.03
2022-11-20T01:54:32.276Z,5.08
2022-11-20T01:56:58.802Z,5.10
2022-11-20T01:59:25.614Z,5.06
2022-11-20T02:01:52.373Z,5.07
2022-11-20T02:04:18.970Z,4.99
2022-11-20T02:06:48.981Z,4.96
2022-11-20T02:09:16.047Z,4.89
2022-11-20T02:11:45.067Z,4.83
2022-11-20T02:14:11.647Z,4.87
2022-11-20T02:16:41.738Z,4.91
2022-11-20T02:19:09.162Z,4.90
2022-11-20T02:21:37.193Z,4.87
2022-11-20T02:24:15.315Z,4.93
2022-11-20T02:26:44.936Z,5.03
2022-11-20T02:29:11.553Z,5.08
2022-11-20T02:31:44.607Z,5.13
2022-11-20T02:34:14.128Z,5.18
2022-11-20T02:36:41.048Z,5.19
2022-11-20T02:39:07.599Z,5.20
2022-11-20T02:41:37.736Z,5.19
2022-11-20T02:44:06.754Z,5.17
2022-11-20T02:46:35.798Z,5.23
2022-11-20T02:49:05.163Z,5.30
2022-11-20T02:51:32.269Z,5.35
2022-11-20T02:53:58.829Z,5.38
2022-11-20T02:56:25.444Z,5.40
2022-11-20T02:58:52.040Z,5.46
2022-11-20T03:01:18.603Z,5.36
2022-11-20T03:03:45.270Z,5.37
2022-11-20T03:06:12.060Z,5.35
2022-11-20T03:08:38.653Z,5.31
2022-11-20T03:11:08.149Z,5.25
2022-11-20T03:13:35.118Z,5.24
2022-11-20T03:16:28.201Z,5.31
2022-11-20T03:18:54.792Z,5.31
2022-11-20T03:21:21.458Z,5.32
2022-11-20T03:23:50.045Z,5.32
2022-11-20T03:26:18.320Z,5.34
2022-11-20T03:28:49.148Z,5.30
2022-11-20T03:31:16.337Z,5.32
2022-11-20T03:33:43.135Z,5.24
2022-11-20T03:36:10.511Z,5.28
2022-11-20T03:38:37.321Z,5.33
2022-11-20T03:41:04.645Z,5.34
2022-11-20T03:43:31.250Z,5.40
2022-11-20T03:45:57.803Z,5.38
2022-11-20T03:48:24.418Z,5.42
2022-11-20T03:50:53.381Z,5.44
2022-11-20T03:53:22.700Z,5.46
2022-11-20T03:55:52.410Z,5.45
2022-11-20T03:58:19.240Z,5.49
2022-11-20T04:00:50.630Z,5.53
2022-11-20T04:03:17.420Z,5.59
2022-11-20T04:05:44.057Z,5.55
2022-11-20T04:08:10.694Z,5.52
2022-11-20T04:10:39.606Z,5.54
2022-11-20T04:13:06.146Z,5.56
2022-11-20T04:15:38.130Z,5.44
2022-11-20T04:18:07.824Z,5.29
2022-11-20T04:20:34.401Z,5.16
2022-11-20T04:23:03.390Z,5.19
2022-11-20T04:25:32.488Z,5.24
2022-11-20T04:28:01.226Z,5.14
2022-11-20T04:30:30.682Z,5.24
2022-11-20T04:32:57.382Z,5.32
2022-11-20T04:35:23.895Z,5.36
2022-11-20T04:37:53.145Z,5.38
2022-11-20T04:40:19.821Z,5.36
2022-11-20T04:42:46.317Z,5.35
2022-11-20T04:45:12.815Z,5.32
2022-11-20T04:47:42.277Z,5.35
2022-11-20T04:50:09.112Z,5.39
2022-11-20T04:52:35.658Z,5.49
2022-11-20T04:55:02.163Z,5.52
2022-11-20T04:57:29.647Z,5.52
2022-11-20T04:59:56.196Z,5.52
2022-11-20T05:02:22.944Z,5.49
2022-11-20T05:04:51.878Z,5.46
2022-11-20T05:07:20.472Z,5.48
2022-11-20T05:09:47.052Z,5.50
2022-11-20T05:12:13.546Z,5.46
2022-11-20T05:14:42.555Z,5.49
2022-11-20T05:17:11.070Z,5.55
2022-11-20T05:19:39.731Z,5.61
2022-11-20T05:22:06.776Z,5.60
2022-11-20T05:24:38.021Z,5.65
2022-11-20T05:27:07.115Z,5.66
2022-11-20T05:29:36.073Z,5.65
2022-11-20T05:32:02.573Z,5.65
2022-11-20T05:34:29.101Z,5.61
2022-11-20T05:36:58.706Z,5.56
2022-11-20T05:39:25.275Z,5.56
2022-11-20T05:42:11.842Z,5.59
2022-11-20T05:44:38.523Z,5.64
2022-11-20T05:47:05.147Z,5.71
2022-11-20T05:49:34.119Z,5.74
2022-11-20T05:52:03.163Z,5.78
2022-11-20T05:54:29.701Z,5.76
2022-11-20T05:56:56.474Z,5.74
2022-11-20T05:59:23.285Z,5.75
2022-11-20T06:01:50.048Z,5.79
2022-11-20T06:04:19.067Z,5.81
2022-11-20T06:06:45.693Z,5.81
2022-11-20T06:09:12.254Z,5.79
2022-11-20T06:11:38.881Z,5.79
2022-11-20T06:14:05.532Z,5.80
2022-11-20T06:16:32.234Z,5.79
2022-11-20T06:18:58.852Z,5.82
2022-11-20T06:21:25.408Z,5.85
2022-11-20T06:23:55.378Z,5.90
2022-11-20T06:26:22.936Z,5.95
2022-11-20T06:28:52.596Z,5.92
2022-11-20T06:31:20.134Z,5.86
2022-11-20T06:33:49.297Z,5.84
2022-11-20T06:36:17.121Z,5.84
2022-11-20T06:38:43.767Z,5.86
2022-11-20T06:41:13.580Z,5.91
2022-11-20T06:43:42.476Z,5.99
2022-11-20T06:46:14.714Z,6.05
2022-11-20T06:48:41.485Z,6.08
2022-11-20T06:51:08.574Z,6.13
2022-11-20T06:53:37.465Z,6.15
2022-11-20T06:56:06.489Z,6.16
2022-11-20T06:58:33.776Z,6.16
2022-11-20T07:01:03.554Z,6.16
2022-11-20T07:03:32.537Z,6.18
2022-11-20T07:05:59.297Z,6.22
2022-11-20T07:08:28.165Z,6.16
2022-11-20T07:10:58.020Z,6.19
2022-11-20T07:13:27.436Z,6.27
2022-11-20T07:15:54.047Z,6.30
2022-11-20T07:18:20.635Z,6.30
2022-11-20T07:20:49.473Z,6.30
2022-11-20T07:23:16.001Z,6.30
2022-11-20T07:25:42.593Z,6.33
2022-11-20T07:28:11.723Z,6.37
2022-11-20T07:30:38.923Z,6.27
2022-11-20T07:33:05.444Z,6.25
2022-11-20T07:35:32.032Z,6.32
2022-11-20T07:37:58.586Z,6.37
2022-11-20T07:40:27.702Z,6.41
2022-11-20T07:42:57.101Z,6.47
2022-11-20T07:45:26.439Z,6.54
2022-11-20T07:47:57.901Z,6.62
2022-11-20T07:50:24.510Z,6.68
2022-11-20T07:52:53.487Z,6.67
2022-11-20T07:55:20.060Z,6.64
2022-11-20T07:57:46.648Z,6.60
2022-11-20T08:00:13.535Z,6.71
2022-11-20T08:02:43.403Z,6.82
2022-11-20T08:05:10.234Z,6.91
2022-11-20T08:07:42.350Z,7.00
2022-11-20T08:10:15.467Z,7.10
2022-11-20T08:13:03.407Z,7.16
2022-11-20T08:15:32.901Z,7.28
2022-11-20T08:18:30.617Z,7.35
2022-11-20T08:20:55.087Z,7.44
2022-11-20T08:23:21.622Z,7.54
2022-11-20T08:25:50.300Z,7.66
2022-11-20T08:28:21.632Z,7.77
2022-11-20T08:30:49.144Z,7.84
2022-11-20T08:33:18.661Z,7.88
2022-11-20T08:35:48.127Z,7.87
2022-11-20T08:38:17.474Z,7.98
2022-11-20T08:41:04.267Z,8.12
2022-11-20T08:43:30.904Z,8.27
2022-11-20T08:45:58.276Z,8.33
2022-11-20T08:48:24.829Z,8.08
2022-11-20T08:50:51.373Z,8.15
2022-11-20T08:53:20.353Z,8.31
2022-11-20T08:55:49.800Z,8.43
2022-11-20T08:58:16.339Z,8.54
2022-11-20T09:00:42.924Z,8.62
2022-11-20T09:03:09.549Z,8.61
2022-11-20T09:05:36.197Z,8.56
2022-11-20T09:08:02.773Z,8.46
2022-11-20T09:10:29.475Z,8.40
2022-11-20T09:12:58.629Z,8.27
2022-11-20T09:15:25.479Z,8.28
2022-11-20T09:17:56.787Z,8.29
2022-11-20T09:20:23.476Z,8.31
2022-11-20T09:22:50.065Z,8.15
2022-11-20T09:25:19.607Z,8.04
2022-11-20T09:27:48.659Z,8.07
2022-11-20T09:30:17.822Z,8.14
2022-11-20T09:32:44.411Z,8.22
2022-11-20T09:35:11.983Z,8.28
2022-11-20T09:37:43.573Z,8.29
2022-11-20T09:40:22.656Z,8.35
2022-11-20T09:42:55.377Z,8.42
2022-11-20T09:45:21.964Z,8.44
2022-11-20T09:48:05.995Z,8.49
2022-11-20T09:50:33.908Z,8.47
2022-11-20T09:53:19.337Z,8.55
2022-11-20T09:55:46.143Z,8.65
2022-11-20T09:58:33.129Z,8.63
2022-11-20T10:01:01.723Z,8.61
2022-11-20T10:03:36.773Z,8.65
2022-11-20T10:06:03.457Z,8.67
2022-11-20T10:08:33.292Z,8.76
2022-11-20T10:11:02.202Z,8.65
2022-11-20T10:14:11.167Z,8.86
2022-11-20T10:16:47.288Z,9.05
2022-11-20T10:19:13.867Z,9.08
2022-11-20T10:21:40.615Z,9.15
2022-11-20T10:24:25.798Z,9.24
2022-11-20T10:26:58.517Z,9.32
2022-11-20T10:29:34.732Z,9.33
2022-11-20T10:32:05.661Z,9.46
2022-11-20T10:34:44.471Z,9.71
2022-11-20T10:37:13.293Z,9.73
2022-11-20T10:39:52.034Z,9.65
2022-11-20T10:42:21.976Z,9.82
2022-11-20T10:45:05.692Z,10.09
2022-11-20T10:47:35.291Z,10.27
2022-11-20T10:50:06.427Z,10.49
2022-11-20T10:52:33.157Z,10.68
2022-11-20T10:55:13.264Z,10.73
2022-11-20T10:58:04.685Z,10.64
2022-11-20T11:00:36.901Z,10.50
2022-11-20T11:03:04.192Z,10.47
2022-11-20T11:06:03.753Z,10.53
2022-11-20T11:08:33.501Z,10.43
2022-11-20T11:11:00.550Z,10.24
2022-11-20T11:13:32.634Z,10.00
2022-11-20T11:15:59.423Z,9.84
2022-11-20T11:18:29.411Z,9.70
2022-11-20T11:20:57.371Z,9.56
2022-11-20T11:23:36.291Z,9.57
2022-11-20T11:26:06.533Z,9.67
2022-11-20T11:28:37.795Z,9.60
2022-11-20T11:31:06.530Z,9.71
2022-11-20T11:33:35.547Z,9.96
2022-11-20T11:36:05.869Z,10.07
2022-11-20T11:38:37.935Z,10.17
2022-11-20T11:41:05.148Z,10.14
2022-11-20T11:43:53.482Z,9.81
2022-11-20T11:46:38.867Z,9.74
2022-11-20T11:49:12.483Z,9.88
2022-11-20T11:51:41.536Z,9.94
2022-11-20T11:54:14.819Z,10.00
2022-11-20T11:56:48.267Z,9.86
2022-11-20T11:59:17.510Z,9.73
2022-11-20T12:01:45.073Z,9.42
2022-11-20T12:04:17.061Z,9.34
2022-11-20T12:06:51.034Z,9.00
2022-11-20T12:09:17.563Z,8.85
2022-11-20T12:11:51.203Z,8.81
2022-11-20T12:14:29.206Z,9.03
2022-11-20T12:16:57.874Z,9.01
2022-11-20T12:19:27.281Z,9.16
2022-11-20T12:22:05.876Z,9.07
2022-11-20T12:24:32.420Z,8.86
2022-11-20T12:27:21.943Z,8.77
2022-11-20T12:29:48.460Z,8.66
2022-11-20T12:32:34.030Z,8.88
2022-11-20T12:35:14.938Z,9.03
2022-11-20T12:37:50.792Z,9.18
2022-11-20T12:40:20.420Z,9.05
2022-11-20T12:43:24.108Z,9.10
2022-11-20T12:46:06.101Z,9.13
2022-11-20T12:48:36.645Z,9.00
2022-11-20T12:51:24.045Z,8.66
2022-11-20T12:53:50.610Z,8.38
2022-11-20T12:56:26.488Z,8.41
2022-11-20T12:58:53.083Z,8.53
2022-11-20T13:01:40.848Z,8.45
2022-11-20T13:04:16.671Z,8.39
2022-11-20T13:06:43.660Z,8.37
2022-11-20T13:09:10.309Z,8.56
2022-11-20T13:11:49.193Z,8.74
2022-11-20T13:14:48.323Z,8.86
2022-11-20T13:17:51.230Z,8.86
2022-11-20T13:20:20.367Z,9.09
2022-11-20T13:22:48.014Z,9.31
2022-11-20T13:25:23.781Z,9.59
2022-11-20T13:27:50.619Z,9.89
2022-11-20T13:30:19.345Z,10.04
2022-11-20T13:32:49.638Z,9.89
2022-11-20T13:35:24.454Z,9.96
2022-11-20T13:37:59.869Z,10.05
2022-11-20T13:40:28.929Z,10.10
2022-11-20T13:42:56.875Z,10.09
2022-11-20T13:45:29.777Z,10.07
2022-11-20T13:47:57.251Z,9.97
2022-11-20T13:50:48.086Z,10.02
2022-11-20T13:53:17.136Z,9.62
2022-11-20T13:55:52.357Z,9.49
2022-11-20T13:58:25.266Z,9.38
2022-11-20T14:00:56.415Z,9.21
2022-11-20T14:03:44.115Z,9.16
2022-11-20T14:06:15.284Z,8.98
2022-11-20T14:08:44.787Z,8.92
2022-11-20T14:11:14.819Z,8.84
2022-11-20T14:13:51.176Z,8.86
2022-11-20T14:16:25.236Z,8.93
2022-11-20T14:18:51.769Z,9.01
2022-11-20T14:21:25.621Z,8.84
2022-11-20T14:24:03.611Z,8.31
2022-11-20T14:26:32.671Z,8.15
2022-11-20T14:28:59.242Z,7.94
2022-11-20T14:31:28.629Z,7.92
2022-11-20T14:33:55.251Z,7.91
2022-11-20T14:36:23.182Z,7.98
2022-11-20T14:38:50.907Z,7.84
2022-11-20T14:41:26.334Z,7.63
2022-11-20T14:43:59.121Z,7.77
2022-11-20T14:46:25.792Z,7.74
2022-11-20T14:48:53.053Z,7.65
2022-11-20T14:51:33.161Z,7.51
2022-11-20T14:54:15.713Z,7.37
2022-11-20T14:56:57.273Z,7.35
2022-11-20T14:59:27.594Z,7.28
2022-11-20T15:02:01.300Z,7.22
2022-11-20T15:04:27.950Z,7.19
2022-11-20T15:06:55.804Z,7.02
2022-11-20T15:09:22.622Z,6.96
2022-11-20T15:11:59.617Z,6.90
2022-11-20T15:14:28.874Z,6.92
2022-11-20T15:16:55.587Z,6.88
2022-11-20T15:19:23.386Z,6.89
2022-11-20T15:21:51.722Z,6.95
2022-11-20T15:24:18.414Z,6.98
2022-11-20T15:26:45.867Z,6.79
2022-11-20T15:29:15.795Z,6.80
2022-11-20T15:31:44.320Z,6.77
2022-11-20T15:34:13.619Z,6.74
2022-11-20T15:36:43.222Z,6.76
2022-11-20T15:39:12.616Z,6.75
2022-11-20T15:41:41.594Z,6.74
2022-11-20T15:44:08.138Z,6.72
2022-11-20T15:46:39.561Z,6.83
2022-11-20T15:49:06.479Z,6.72
2022-11-20T15:51:33.083Z,6.65
2022-11-20T15:53:59.786Z,6.63
2022-11-20T15:56:26.659Z,6.61
2022-11-20T15:58:53.280Z,6.65
2022-11-20T16:01:23.369Z,6.72
2022-11-20T16:03:50.158Z,6.74
2022-11-20T16:06:22.125Z,6.68
2022-11-20T16:08:54.156Z,6.54
2022-11-20T16:11:20.764Z,6.57
2022-11-20T16:14:06.023Z,6.63
2022-11-20T16:16:36.403Z,6.73
2022-11-20T16:19:07.758Z,6.83
2022-11-20T16:21:35.456Z,6.89
2022-11-20T16:24:05.925Z,6.98
2022-11-20T16:26:32.691Z,7.02
2022-11-20T16:28:59.591Z,7.07
2022-11-20T16:31:26.139Z,7.10
2022-11-20T16:33:56.749Z,7.14
2022-11-20T16:36:26.771Z,7.18
2022-11-20T16:38:54.308Z,7.20
2022-11-20T16:41:23.544Z,7.22
2022-11-20T16:43:54.098Z,7.25
2022-11-20T16:46:21.924Z,7.27
2022-11-20T16:49:12.256Z,7.28
2022-11-20T16:51:43.609Z,7.28
2022-11-20T16:54:16.488Z,7.08
2022-11-20T16:56:47.887Z,7.06
2022-11-20T16:59:14.462Z,7.05
2022-11-20T17:01:46.361Z,7.05
2022-11-20T17:04:19.595Z,7.04
2022-11-20T17:06:46.323Z,7.02
2022-11-20T17:09:13.156Z,7.01
2022-11-20T17:11:44.265Z,6.94
2022-11-20T17:14:11.382Z,6.92
2022-11-20T17:16:43.133Z,6.91
2022-11-20T17:19:09.860Z,6.87
2022-11-20T17:21:39.740Z,6.87
2022-11-20T17:24:09.911Z,6.81
2022-11-20T17:26:40.653Z,6.58
2022-11-20T17:29:14.292Z,6.47
2022-11-20T17:31:41.086Z,6.48
2022-11-20T17:34:09.075Z,6.50
2022-11-20T17:36:44.886Z,6.49
2022-11-20T17:39:13.010Z,6.52
2022-11-20T17:41:42.288Z,6.54
2022-11-20T17:44:09.802Z,6.54
2022-11-20T17:46:36.419Z,6.53
2022-11-20T17:49:03.618Z,6.47
2022-11-20T17:51:35.281Z,6.40
2022-11-20T17:54:05.986Z,6.32
2022-11-20T17:56:54.951Z,6.32
2022-11-20T17:59:24.419Z,6.30
2022-11-20T18:02:03.472Z,6.27
2022-11-20T18:04:32.068Z,6.26
2022-11-20T18:07:09.488Z,6.17
2022-11-20T18:09:36.759Z,6.17
2022-11-20T18:12:08.054Z,6.10
2022-11-20T18:14:45.093Z,6.07
2022-11-20T18:17:17.251Z,6.07
2022-11-20T18:20:07.173Z,6.09
2022-11-20T18:22:36.828Z,6.11
2022-11-20T18:25:03.548Z,6.16
2022-11-20T18:27:35.980Z,6.17
2022-11-20T18:30:05.073Z,6.16
2022-11-20T18:32:31.909Z,6.13
2022-11-20T18:34:59.194Z,6.12
2022-11-20T18:37:26.077Z,6.16
2022-11-20T18:39:53.215Z,6.19
2022-11-20T18:42:43.292Z,6.21
2022-11-20T18:45:12.618Z,6.19
2022-11-20T18:47:40.227Z,6.20
2022-11-20T18:50:09.713Z,6.22
2022-11-20T18:52:44.536Z,6.18
2022-11-20T18:55:13.799Z,6.10
2022-11-20T18:57:40.446Z,6.07
2022-11-20T19:00:12.946Z,6.09
2022-11-20T19:02:43.556Z,6.14
2022-11-20T19:05:13.460Z,6.02
2022-11-20T19:07:40.635Z,6.02
2022-11-20T19:10:07.787Z,6.06
2022-11-20T19:12:34.378Z,6.11
2022-11-20T19:15:01.007Z,6.16
2022-11-20T19:17:27.595Z,6.18
2022-11-20T19:19:55.110Z,6.22
2022-11-20T19:22:21.942Z,6.23
2022-11-20T19:24:48.546Z,6.22
2022-11-20T19:27:15.178Z,6.12
2022-11-20T19:29:44.217Z,6.11
2022-11-20T19:32:13.161Z,6.12
2022-11-20T19:34:39.723Z,6.10
2022-11-20T19:37:06.419Z,5.96
2022-11-20T19:39:36.324Z,5.72
2022-11-20T19:42:02.857Z,5.57
2022-11-20T19:44:32.949Z,5.55
2022-11-20T19:47:04.375Z,5.59
2022-11-20T19:49:34.192Z,5.65
2022-11-20T19:52:03.241Z,5.73
2022-11-20T19:54:31.966Z,5.78
2022-11-20T19:56:58.584Z,5.85
2022-11-20T19:59:25.572Z,5.89
2022-11-20T20:01:54.858Z,5.95
2022-11-20T20:04:21.526Z,5.99
2022-11-20T20:06:48.126Z,5.98
2022-11-20T20:09:20.348Z,5.88
2022-11-20T20:11:47.280Z,5.74
2022-11-20T20:14:14.796Z,5.73
2022-11-20T20:16:43.833Z,5.74
2022-11-20T20:19:14.290Z,5.71
2022-11-20T20:21:44.047Z,5.66
2022-11-20T20:24:11.042Z,5.45
2022-11-20T20:26:37.802Z,5.32
2022-11-20T20:29:04.304Z,5.32
2022-11-20T20:31:31.449Z,5.32
2022-11-20T20:34:00.398Z,5.26
2022-11-20T20:36:27.167Z,5.21
2022-11-20T20:38:57.239Z,5.19
2022-11-20T20:41:26.290Z,5.20
2022-11-20T20:44:11.551Z,5.17
2022-11-20T20:46:40.906Z,5.09
2022-11-20T20:49:07.641Z,5.05
2022-11-20T20:51:34.529Z,4.88
2022-11-20T20:54:03.725Z,4.74
2022-11-20T20:56:30.277Z,4.71
2022-11-20T20:58:59.323Z,4.77
2022-11-20T21:01:28.983Z,4.79
2022-11-20T21:04:02.403Z,4.82
2022-11-20T21:06:33.773Z,4.81
2022-11-20T21:09:00.447Z,4.71
2022-11-20T21:11:29.441Z,4.65
2022-11-20T21:13:58.628Z,4.70
2022-11-20T21:16:25.375Z,4.71
2022-11-20T21:18:51.902Z,4.79
2022-11-20T21:21:37.037Z,4.80
2022-11-20T21:24:03.881Z,4.85
2022-11-20T21:26:30.421Z,4.88
2022-11-20T21:28:59.413Z,4.86
2022-11-20T21:31:29.967Z,4.82
2022-11-20T21:33:56.616Z,4.71
2022-11-20T21:36:26.554Z,4.70
2022-11-20T21:38:56.078Z,4.73
2022-11-20T21:41:26.348Z,4.81
2022-11-20T21:44:16.278Z,4.85
2022-11-20T21:46:41.343Z,4.87
2022-11-20T21:49:08.004Z,4.76
2022-11-20T21:51:34.834Z,4.79
2022-11-20T21:54:04.010Z,4.81
2022-11-20T21:56:30.656Z,4.76
2022-11-20T21:58:59.581Z,4.72
2022-11-20T22:01:31.655Z,4.67
2022-11-20T22:03:59.132Z,4.57
2022-11-20T22:06:26.173Z,4.53
2022-11-20T22:08:52.961Z,4.56
2022-11-20T22:11:20.621Z,4.58
2022-11-20T22:14:05.937Z,4.65
2022-11-20T22:16:36.061Z,4.69
2022-11-20T22:19:02.871Z,4.62
2022-11-20T22:21:30.076Z,4.50
2022-11-20T22:23:56.963Z,4.44
2022-11-20T22:26:24.440Z,4.51
2022-11-20T22:28:53.941Z,4.58
2022-11-20T22:31:20.998Z,4.60
2022-11-20T22:33:50.354Z,4.65
2022-11-20T22:36:18.022Z,4.59
2022-11-20T22:38:44.618Z,4.53
2022-11-20T22:41:17.271Z,4.56
2022-11-20T22:43:44.497Z,4.52
2022-11-20T22:46:11.167Z,4.46
2022-11-20T22:48:43.944Z,4.41
2022-11-20T22:51:14.173Z,4.45
2022-11-20T22:53:43.543Z,4.48
2022-11-20T22:56:12.674Z,4.42
2022-11-20T22:58:43.121Z,4.46
2022-11-20T23:01:09.640Z,4.49
2022-11-20T23:03:36.484Z,4.52
2022-11-20T23:06:03.026Z,4.56
2022-11-20T23:08:32.412Z,4.59
2022-11-20T23:11:05.200Z,4.61
2022-11-20T23:13:31.751Z,4.61
2022-11-20T23:16:17.500Z,4.54
2022-11-20T23:18:46.465Z,4.52
2022-11-20T23:21:18.291Z,4.49
2022-11-20T23:23:50.806Z,4.47
2022-11-20T23:26:18.621Z,4.44
2022-11-20T23:28:47.539Z,4.44
2022-11-20T23:31:17.447Z,4.45
2022-11-20T23:33:46.711Z,4.45
2022-11-20T23:36:13.650Z,4.46
2022-11-20T23:38:40.237Z,4.46
2022-11-20T23:41:06.911Z,4.45
2022-11-20T23:43:33.538Z,4.46
2022-11-20T23:46:03.336Z,4.41
2022-11-20T23:48:33.307Z,4.40
2022-11-20T23:51:03.188Z,4.38
2022-11-20T23:53:29.959Z,4.38
2022-11-20T23:55:57.558Z,4.39
2022-11-20T23:58:30.828Z,4.39
